Latest Coastal Weather Observations for Coolangatta (QLD)

IDN60701

Issued at 8:21 pm EDT Sunday 7 March 2021 (issued every 10 minutes, with the page automatically refreshed every 10 minutes)

About coastal observations | Map of coastal stations | Coastal observations for NSW | Marine services | Other Formats
Station Details ID: 040717 Name: COOLANGATTA Lat: -28.17 Lon: 153.51 Height: 4.0 m
Data from the previous 72 hours. | See also: Recent months at Coolangatta (QLD)

Observations at Coolangatta are collected in the Queensland time zone, which does not include daylight savings during the summer period. Therefore 'Rain since 9am' totals and other values are based on the Queensland time zone.

Date/Time
EDT
Wind Sea
Height
m
Swell Vis
km
Cloud Weather Temp
°C
Press
MSL
hPa
Rain since
9am
mm
Dir  Spd
kts
Gust
kts
Height
m
Period
s
Dir
07/08:00pm N 11 15 - - - - 10 Partly cloudy - 24.8 1014.4 0.0
07/07:30pm N 10 13 - - - - 10 Partly cloudy - 24.9 1014.2 0.0
07/07:00pm NNE 8 11 - - - - 10 Mostly clear - 24.7 1013.8 0.0
07/06:30pm NE 8 10 - - - - 10 Partly cloudy - 24.7 1013.4 0.0
07/06:00pm NNE 8 11 - - - - 10 - - 24.7 1013.4 0.0
07/05:30pm NNE 7 10 - - - - 10 - - 25.3 1013.2 0.0
07/05:00pm NE 8 11 - - - - 10 Partly cloudy - 25.6 1012.9 0.0
07/04:30pm NE 9 13 - - - - 10 Partly cloudy - 25.4 1013.2 0.0
07/04:00pm NE 9 13 - - - - 10 - - 25.5 1013.3 0.0
07/03:30pm NE 9 12 - - - - 10 Partly cloudy - 25.4 1013.3 0.0
07/03:00pm NE 9 13 - - - - 10 - - 25.9 1013.4 0.0
07/02:30pm ENE 9 12 - - - - 10 Partly cloudy - 26.0 1013.7 0.0
07/02:00pm NE 9 11 - - - - 10 Partly cloudy - 25.2 1014.1 0.0
07/01:30pm NE 9 12 - - - - 10 Partly cloudy - 26.4 1014.5 0.0
07/01:00pm ENE 8 11 - - - - 10 Mostly clear - 25.8 1014.8 0.0
07/12:30pm NE 7 10 - - - - 10 Partly cloudy - 24.3 1015.1 0.0
07/12:00pm ENE 10 12 - - - - 10 Partly cloudy - 24.1 1015.5 0.0
07/11:30am ESE 8 11 - - - - 10 Partly cloudy - 25.4 1015.5 0.0
07/11:00am SE 6 9 - - - - 10 Partly cloudy - 24.2 1015.8 0.0
07/10:30am ENE 3 11 - - - - 10 Partly cloudy - 24.2 1015.8 0.0
07/10:00am SSE 5 8 - - - - 10 - - 24.5 1015.9 0.2
07/09:30am S 5 8 - - - - 10 - - 23.9 1015.6 0.2
07/09:00am SSE 6 9 - - - - 10 Partly cloudy - 23.4 1015.4 0.2
07/08:30am SE 5 7 - - - - 10 Cloudy - 22.7 1015.2 0.2
07/08:00am CALM 0 0 - - - - 10 Partly cloudy - 21.8 1014.9 0.2
07/07:30am SSW 5 7 - - - - 10 Cloudy - 21.4 1014.7 0.2
07/07:00am SW 6 8 - - - - 10 Mostly cloudy - 21.0 1014.3 0.2
07/06:30am SSW 5 7 - - - - 10 Partly cloudy - 20.9 1013.9 0.2
07/06:00am S 7 11 - - - - 10 Partly cloudy - 20.7 1013.5 0.2
07/05:30am S 6 8 - - - - 10 Cloudy - 20.9 1013.2 0.2
07/05:00am S 7 8 - - - - 10 Cloudy - 20.5 1012.9 0.2
07/04:30am S 4 6 - - - - 10 Partly cloudy - 20.2 1012.8 0.2
07/04:00am WSW 3 4 - - - - 10 Cloudy - 20.9 1012.7 0.2
07/03:30am SSW 6 8 - - - - 10 Partly cloudy - 21.3 1012.5 0.2
07/03:00am SSW 5 7 - - - - 10 Partly cloudy - 21.5 1012.6 0.2
07/02:30am SW 6 8 - - - - 10 Partly cloudy - 21.8 1012.8 0.2
07/02:00am SSW 6 8 - - - - 10 Partly cloudy - 21.7 1012.8 0.2
07/01:30am S 6 8 - - - - 10 Partly cloudy - 21.7 1013.0 0.2
07/01:00am SW 4 6 - - - - 10 Cloudy - 21.6 1013.0 0.2
07/12:30am SW 5 6 - - - - 10 Partly cloudy - 21.6 1013.0 0.2
07/12:00am S 5 7 - - - - 10 Partly cloudy - 21.7 1013.1 0.2
 
Date/Time
EDT
Wind Sea
Height
m
Swell Vis
km
Cloud Weather Temp
°C
Press
MSL
hPa
Rain since
9am
mm
Dir  Spd
kts
Gust
kts
Height
m
Period
s
Dir
06/11:30pm S 5 7 - - - - 10 Partly cloudy - 21.6 1013.1 0.2
06/11:00pm S 3 5 - - - - 10 Cloudy - 21.3 1012.9 0.2
06/10:30pm SSE 5 6 - - - - 10 Partly cloudy - 21.5 1012.9 0.2
06/10:00pm SW 4 6 - - - - 10 Cloudy Recent precip. 21.8 1012.9 0.2
06/09:30pm SSW 5 8 - - - - 10 Partly cloudy - 22.2 1012.7 0.2
06/09:00pm SW 6 8 - - - - 10 Partly cloudy - 22.1 1012.3 0.2
06/08:30pm S 5 6 - - - - 10 Partly cloudy - 22.0 1011.7 0.2
06/08:00pm SSE 8 13 - - - - 10 Partly cloudy - 22.4 1011.2 0.2
06/07:30pm SSE 6 10 - - - - 10 Partly cloudy - 22.4 1011.0 0.2
06/07:00pm SSE 9 11 - - - - 10 Partly cloudy - 23.2 1010.6 0.2
06/06:30pm SE 10 14 - - - - 10 Partly cloudy - 23.8 1010.3 0.2
06/06:00pm SE 12 16 - - - - 10 Partly cloudy - 24.1 1009.9 0.2
06/05:30pm SSE 10 15 - - - - 10 Partly cloudy - 24.2 1009.6 0.2
06/05:00pm SE 11 16 - - - - 10 Partly cloudy - 24.6 1009.4 0.2
06/04:30pm SSE 13 16 - - - - 10 - - 24.8 1009.3 0.2
06/04:00pm SE 15 20 - - - - 10 Mostly cloudy - 25.3 1009.4 0.2
06/03:30pm SSE 13 17 - - - - 10 Partly cloudy - 24.6 1009.6 0.2
06/03:00pm SSE 14 20 - - - - 10 Partly cloudy - 24.7 1009.6 0.2
06/02:30pm SSE 13 18 - - - - 10 Partly cloudy - 25.2 1009.5 0.2
06/02:00pm SSE 13 18 - - - - 10 Partly cloudy - 25.1 1009.6 0.2
06/01:30pm SE 15 23 - - - - 10 Partly cloudy - 25.8 1009.6 0.2
06/01:00pm SSE 12 18 - - - - 10 Cloudy - 26.8 1009.9 0.2
06/12:30pm SSE 13 20 - - - - 10 Partly cloudy - 26.5 1009.9 0.2
06/12:00pm S 11 15 - - - - 10 Partly cloudy - 25.3 1010.1 0.2
06/11:30am SSE 12 19 - - - - 10 Partly cloudy - 25.5 1010.3 0.2
06/11:00am S 12 18 - - - - 10 Partly cloudy - 24.2 1010.3 0.2
06/10:30am S 13 18 - - - - 10 Partly cloudy - 25.2 1010.2 0.0
06/10:00am S 10 14 - - - - 10 - - 25.0 1009.9 3.0
06/09:30am SSW 8 12 - - - - 10 - - 24.0 1009.9 3.0
06/09:00am S 9 13 - - - - 10 Partly cloudy - 22.5 1009.6 3.0
06/08:30am S 11 14 - - - - 10 Partly cloudy - 21.4 1009.3 3.0
06/08:00am S 11 16 - - - - 10 Partly cloudy - 21.7 1008.8 3.0
06/07:30am SSW 10 14 - - - - 10 Partly cloudy - 20.9 1008.3 3.0
06/07:00am S 8 13 - - - - 10 Mostly clear - 20.8 1007.8 3.0
06/06:30am S 7 9 - - - - 10 Partly cloudy - 20.6 1007.4 3.0
06/06:00am SSW 7 11 - - - - 10 Partly cloudy - 20.9 1007.0 3.0
06/05:30am S 6 8 - - - - 10 Partly cloudy - 21.1 1006.8 3.0
06/05:00am SSW 7 9 - - - - 10 Partly cloudy - 21.1 1006.8 3.0
06/04:30am SSW 7 10 - - - - 10 Partly cloudy - 21.0 1006.7 3.0
06/04:00am S 10 16 - - - - 10 Mostly cloudy Showers 21.2 1006.5 3.0
06/03:30am SSW 8 11 - - - - 10 Partly cloudy - 21.1 1006.6 3.0
06/03:00am SW 8 11 - - - - 10 Partly cloudy - 21.1 1006.8 3.0
06/02:48am SSW 7 11 - - - - 10 Partly cloudy - 21.1 1007.0 2.8
06/02:30am SSW 10 14 - - - - 3 Partly cloudy - 21.1 1007.0 2.6
06/02:25am S 11 17 - - - - 6 Partly cloudy - 21.2 1007.0 1.6
06/02:00am S 11 15 - - - - 10 Partly cloudy - 21.7 1007.0 0.2
06/01:30am S 8 16 - - - - 10 Partly cloudy - 22.9 1007.1 0.0
06/01:00am SW 5 7 - - - - 10 Cloudy - 22.8 1007.3 0.0
06/12:30am SSW 6 8 - - - - 10 Partly cloudy - 22.9 1007.1 0.0
06/12:00am SSW 7 10 - - - - 10 - - 22.8 1007.3 0.0
 
Date/Time
EDT
Wind Sea
Height
m
Swell Vis
km
Cloud Weather Temp
°C
Press
MSL
hPa
Rain since
9am
mm
Dir  Spd
kts
Gust
kts
Height
m
Period
s
Dir
05/11:30pm S 6 9 - - - - 10 - - 22.7 1007.3 0.0
05/11:00pm SSW 8 11 - - - - 10 Cloudy - 23.1 1007.4 0.0
05/10:30pm SSW 6 9 - - - - 10 Partly cloudy - 22.9 1007.3 0.0
05/10:00pm SW 3 5 - - - - 10 Mostly cloudy - 22.3 1007.2 0.0
05/09:30pm SSW 3 5 - - - - 10 Partly cloudy - 22.6 1007.0 0.0
05/09:00pm SW 3 4 - - - - 10 - - 22.8 1006.6 0.0
05/08:30pm WSW 4 6 - - - - 10 - - 22.6 1006.0 0.0
05/08:00pm N 1 5 - - - - 10 - - 23.5 1005.5 0.0
05/07:30pm N 4 6 - - - - 10 - - 25.0 1005.2 0.0
05/07:00pm N 6 8 - - - - 10 - - 25.6 1004.8 0.0
05/06:30pm NNE 7 10 - - - - 10 - - 25.9 1004.5 0.0
05/06:00pm NNE 8 10 - - - - 10 - - 26.4 1004.3 0.0
05/05:30pm NE 10 12 - - - - 10 - - 26.6 1004.1 0.0
05/05:00pm NNE 10 12 - - - - 10 - - 26.8 1004.1 0.0
05/04:30pm NNE 10 13 - - - - 10 - - 26.7 1003.9 0.0
05/04:00pm NNE 11 14 - - - - 10 - - 27.2 1003.9 0.0
05/03:30pm N 13 15 - - - - 10 - - 27.2 1004.1 0.0
05/03:00pm NNE 13 17 - - - - 10 - - 27.0 1004.3 0.0
05/02:30pm NNE 13 16 - - - - 10 - - 27.2 1004.6 0.0
05/02:00pm N 13 16 - - - - 10 - - 27.8 1004.8 0.0
05/01:30pm N 13 16 - - - - 10 Partly cloudy - 28.0 1005.3 0.0
05/01:00pm N 12 15 - - - - 10 Mostly clear - 27.4 1005.7 0.0
05/12:30pm N 12 15 - - - - 10 - - 27.5 1006.2 0.0
05/12:00pm NW 7 12 - - - - 10 - - 26.8 1006.8 0.0
05/11:30am NNW 9 13 - - - - 10 - - 26.6 1007.3 0.0
05/11:00am NW 10 14 - - - - 10 - - 26.1 1007.8 0.0
05/10:30am NW 10 15 - - - - 10 - - 25.6 1008.0 0.0
05/10:00am NW 9 13 - - - - 10 - - 25.1 1008.3 0.6
05/09:30am NW 8 12 - - - - 10 - - 24.3 1008.3 0.6
05/09:00am WNW 7 9 - - - - 10 - - 23.5 1008.3 0.6
05/08:30am W 5 8 - - - - 10 - - 22.0 1008.2 0.6
05/08:00am WSW 4 6 - - - - 10 - - 19.5 1008.0 0.6
05/07:30am SW 5 6 - - - - 10 - - 17.9 1008.0 0.6
05/07:00am SW 2 5 - - - - 10 - - 16.8 1008.0 0.6
05/06:30am CALM 0 0 - - - - 10 - - 17.0 1007.9 0.6
05/06:00am CALM 0 0 - - - - 10 - - 16.8 1007.9 0.6
05/05:30am CALM 0 0 - - - - 10 - - 17.0 1007.9 0.6
05/05:00am SW 2 4 - - - - 10 - - 17.0 1007.9 0.6
05/04:30am SW 1 3 - - - - 10 - - 17.0 1008.0 0.6
05/04:00am SW 1 3 - - - - 10 - - 17.2 1008.3 0.6
05/03:30am SW 1 3 - - - - 10 - - 17.3 1008.6 0.6
05/03:00am SW 1 4 - - - - 10 - - 17.2 1008.9 0.6
05/02:30am SW 1 5 - - - - 10 Partly cloudy - 17.5 1009.2 0.6
05/02:00am SSW 4 6 - - - - 10 - - 17.6 1009.6 0.6
05/01:30am SW 4 6 - - - - 10 - - 17.5 1010.0 0.6
05/01:00am SSW 3 5 - - - - 10 - - 17.6 1010.2 0.6
05/12:30am SSW 4 5 - - - - 10 - - 17.8 1010.4 0.6
05/12:00am SSW 3 5 - - - - 10 - - 18.0 1010.6 0.6
 
Date/Time
EDT
Wind Sea
Height
m
Swell Vis
km
Cloud Weather Temp
°C
Press
MSL
hPa
Rain since
9am
mm
Dir  Spd
kts
Gust
kts
Height
m
Period
s
Dir
04/11:30pm SW 4 5 - - - - 10 - - 18.1 1010.8 0.6
04/11:00pm WSW 3 5 - - - - 10 - - 18.5 1010.9 0.6
04/10:30pm SW 5 7 - - - - 10 - - 18.7 1011.0 0.6
04/10:00pm SW 4 6 - - - - 10 - - 19.0 1011.0 0.6
04/09:30pm WSW 4 6 - - - - 10 - - 19.4 1010.9 0.6

Other formats

Comma delimited format used in spreadsheet applications
http://www.bom.gov.au/fwo/IDN60701/IDN60701.94592.axf

JavaScript Object Notation format (JSON) in row-major order
http://www.bom.gov.au/fwo/IDN60701/IDN60701.94592.json

Data quality

Most of these data are generated automatically and are frequently updated. Quality checks on data are not normally performed. It is possible for incorrect values to appear. Refer to information at About Latest Weather Observations and please check the disclaimer before using these data.